Time;durP1;ratioP1;P1;durP2;ratioP2;P2;SDS_P1;SDS_P2;PMS_P1;PMS_P2;Temp;Humidity;BMP_temperature;BMP_pressure;BME280_temperature;BME280_humidity;BME280_pressure;Samples;Min_cycle;Max_cycle;Signal;HPM_P1;HPM_P2
2020/12/07 00:00:39;;;;;;;6.53;3.53;;;5.00;99.90;;;;;;5084226;28;20212;-78
2020/12/07 00:03:06;;;;;;;6.63;3.67;;;5.30;99.90;;;;;;5092621;28;20196;-80
2020/12/07 00:05:33;;;;;;;5.57;2.83;;;5.20;99.90;;;;;;5093597;28;20206;-78
2020/12/07 00:08:01;;;;;;;5.88;3.30;;;5.30;99.90;;;;;;5082011;28;20198;-78
2020/12/07 00:10:28;;;;;;;6.65;3.53;;;5.20;99.90;;;;;;5083970;28;20218;-79
2020/12/07 00:12:55;;;;;;;4.90;3.05;;;5.20;99.90;;;;;;5093055;28;20223;-79
2020/12/07 00:15:21;;;;;;;8.00;3.38;;;5.20;99.90;;;;;;5104457;28;20671;-79
2020/12/07 00:17:48;;;;;;;6.65;3.60;;;5.10;99.90;;;;;;5083687;28;20206;-79
2020/12/07 00:20:16;;;;;;;5.03;2.95;;;5.10;99.90;;;;;;5084788;28;20671;-78
2020/12/07 00:22:43;;;;;;;5.70;3.60;;;5.30;99.90;;;;;;5089469;28;20218;-79
2020/12/07 00:25:10;;;;;;;5.15;3.30;;;5.20;99.90;;;;;;5096437;28;20206;-77
2020/12/07 00:27:36;;;;;;;7.22;4.30;;;5.30;99.90;;;;;;5112847;28;20204;-79
2020/12/07 00:30:05;;;;;;;6.78;4.00;;;5.20;99.90;;;;;;5106519;28;20205;-79
2020/12/07 00:32:33;;;;;;;7.18;4.15;;;5.30;99.90;;;;;;5104696;28;20294;-79
2020/12/07 00:35:00;;;;;;;4.82;3.15;;;5.50;99.90;;;;;;5104723;28;20659;-78
2020/12/07 00:37:26;;;;;;;6.93;2.97;;;5.50;99.90;;;;;;5102874;28;20198;-79
2020/12/07 00:39:54;;;;;;;4.35;2.55;;;5.20;99.90;;;;;;5102901;28;20205;-76
2020/12/07 00:42:20;;;;;;;6.80;3.53;;;5.40;99.90;;;;;;5089938;28;20217;-78
2020/12/07 00:44:47;;;;;;;4.75;2.92;;;5.30;99.90;;;;;;5093554;28;20205;-80
2020/12/07 00:47:14;;;;;;;5.75;3.05;;;5.40;99.90;;;;;;5103916;28;20200;-79
2020/12/07 00:49:40;;;;;;;5.03;2.78;;;5.20;99.90;;;;;;5093188;28;20202;-78
2020/12/07 00:52:08;;;;;;;5.35;2.63;;;5.40;99.90;;;;;;5115304;28;20228;-78
2020/12/07 00:54:35;;;;;;;4.68;2.95;;;5.10;99.90;;;;;;5120757;28;20198;-78
2020/12/07 00:57:03;;;;;;;5.07;2.67;;;5.20;99.90;;;;;;5109096;28;20269;-79
2020/12/07 00:59:30;;;;;;;5.10;3.28;;;5.30;99.90;;;;;;5105814;28;20887;-79
2020/12/07 01:01:58;;;;;;;5.95;3.30;;;5.40;99.90;;;;;;5095845;28;20229;-78
2020/12/07 01:04:25;;;;;;;5.55;3.28;;;5.10;99.90;;;;;;5113137;28;20204;-78
2020/12/07 01:06:51;;;;;;;6.22;3.20;;;5.30;99.90;;;;;;5106887;28;20227;-79
2020/12/07 01:09:19;;;;;;;5.68;3.25;;;5.30;99.90;;;;;;5099919;28;20206;-78
2020/12/07 01:11:46;;;;;;;5.30;2.65;;;5.10;99.90;;;;;;5123138;28;20224;-78
2020/12/07 01:14:14;;;;;;;4.40;2.65;;;5.10;99.90;;;;;;5103561;28;20201;-79
2020/12/07 01:16:41;;;;;;;5.10;3.08;;;5.30;99.90;;;;;;5097995;28;20201;-79
2020/12/07 01:19:08;;;;;;;4.00;2.75;;;5.40;99.90;;;;;;5107919;28;20253;-78
2020/12/07 01:21:35;;;;;;;4.03;2.60;;;5.30;99.90;;;;;;5101840;28;20221;-79
2020/12/07 01:24:02;;;;;;;6.05;3.40;;;5.40;99.90;;;;;;5081948;28;20210;-79
2020/12/07 01:26:30;;;;;;;4.40;2.70;;;5.40;99.90;;;;;;5079552;28;20198;-79
2020/12/07 01:28:56;;;;;;;5.03;2.90;;;5.50;99.90;;;;;;5090443;28;20255;-77
2020/12/07 01:31:24;;;;;;;8.32;2.85;;;5.30;99.90;;;;;;5114511;28;20254;-78
2020/12/07 01:33:51;;;;;;;4.45;2.85;;;5.40;99.90;;;;;;5092671;28;20209;-79
2020/12/07 01:36:17;;;;;;;5.53;3.35;;;5.30;99.90;;;;;;5130596;22;20244;-78
2020/12/07 01:38:44;;;;;;;5.55;2.92;;;5.40;99.90;;;;;;5113150;28;20219;-77
2020/12/07 01:41:10;;;;;;;4.50;2.70;;;5.50;99.90;;;;;;5114975;28;20227;-77
2020/12/07 01:43:37;;;;;;;4.50;2.70;;;5.40;99.90;;;;;;5117040;28;20201;-77
2020/12/07 01:46:05;;;;;;;5.82;2.85;;;5.40;99.90;;;;;;5113850;28;20224;-77
2020/12/07 01:48:33;;;;;;;4.75;3.22;;;5.50;99.90;;;;;;5074323;28;20209;-77
2020/12/07 01:51:00;;;;;;;5.38;3.55;;;5.40;99.90;;;;;;5072895;28;20710;-77
2020/12/07 01:53:27;;;;;;;4.97;3.20;;;5.10;99.90;;;;;;5093137;28;20221;-78
2020/12/07 01:55:54;;;;;;;5.28;3.33;;;5.40;99.90;;;;;;5093876;28;20225;-77
2020/12/07 01:58:21;;;;;;;5.78;3.03;;;5.20;99.90;;;;;;5100037;28;20680;-77
2020/12/07 02:00:47;;;;;;;6.32;3.30;;;5.20;99.90;;;;;;5114530;28;20208;-78
2020/12/07 02:03:14;;;;;;;5.20;3.33;;;5.30;99.90;;;;;;5096835;28;20198;-77
2020/12/07 02:05:42;;;;;;;5.97;3.72;;;5.10;99.90;;;;;;5093079;28;20221;-77
2020/12/07 02:08:16;;;;;;;5.15;3.75;;;5.10;99.90;;;;;;5093500;28;20262;-77
2020/12/07 02:10:44;;;;;;;6.05;3.53;;;5.20;99.90;;;;;;5101022;28;20681;-77
2020/12/07 02:13:11;;;;;;;4.85;3.30;;;5.40;99.90;;;;;;5093525;28;20228;-77
2020/12/07 02:15:38;;;;;;;4.95;3.30;;;5.40;99.90;;;;;;5092549;28;20274;-78
2020/12/07 02:18:05;;;;;;;6.80;3.50;;;5.20;99.90;;;;;;5092821;28;20193;-77
2020/12/07 02:20:34;;;;;;;6.95;3.22;;;5.30;99.90;;;;;;5093769;28;20308;-77
2020/12/07 02:23:01;;;;;;;4.22;2.90;;;5.40;99.90;;;;;;5095585;28;20211;-77
2020/12/07 02:25:27;;;;;;;4.70;3.17;;;5.50;99.90;;;;;;5108971;28;20220;-77
2020/12/07 02:27:54;;;;;;;4.47;2.60;;;5.40;99.90;;;;;;5111235;28;20212;-77
2020/12/07 02:30:22;;;;;;;5.65;3.28;;;5.20;99.90;;;;;;5092136;28;20209;-77
2020/12/07 02:32:50;;;;;;;4.95;3.00;;;5.20;99.90;;;;;;5092337;28;20255;-77
2020/12/07 02:35:17;;;;;;;5.18;2.97;;;5.40;99.90;;;;;;5091749;28;20229;-77
2020/12/07 02:37:45;;;;;;;5.20;3.67;;;5.50;99.90;;;;;;5100017;28;20758;-77
2020/12/07 02:40:12;;;;;;;4.30;3.00;;;5.50;99.90;;;;;;5093404;28;20201;-77
2020/12/07 02:42:41;;;;;;;5.22;3.67;;;5.20;99.90;;;;;;5092179;28;20201;-77
2020/12/07 02:45:09;;;;;;;7.38;4.07;;;5.30;99.90;;;;;;5091478;28;20229;-77
2020/12/07 02:47:36;;;;;;;4.97;2.97;;;5.40;99.90;;;;;;5092011;28;20266;-78
2020/12/07 02:50:03;;;;;;;4.32;2.80;;;5.30;99.90;;;;;;5092116;28;20217;-77
2020/12/07 02:52:29;;;;;;;5.85;3.20;;;5.40;99.90;;;;;;5106250;28;20229;-77
2020/12/07 02:54:58;;;;;;;4.72;3.10;;;5.30;99.90;;;;;;5110185;28;20734;-77
2020/12/07 02:57:24;;;;;;;4.55;2.70;;;5.30;99.90;;;;;;5093031;28;20255;-76
2020/12/07 02:59:51;;;;;;;4.35;2.85;;;5.40;99.90;;;;;;5089530;28;20213;-77
2020/12/07 03:02:18;;;;;;;4.38;3.00;;;5.60;99.90;;;;;;5084557;28;20208;-77
2020/12/07 03:04:45;;;;;;;6.10;3.25;;;5.50;99.90;;;;;;5089915;28;20294;-77
2020/12/07 03:07:12;;;;;;;4.95;2.67;;;5.60;99.90;;;;;;5089760;28;20209;-76
2020/12/07 03:09:38;;;;;;;4.47;2.90;;;5.60;99.90;;;;;;5092468;28;20857;-77
2020/12/07 03:12:06;;;;;;;4.60;3.20;;;5.40;99.90;;;;;;5099673;28;20251;-77
2020/12/07 03:14:33;;;;;;;3.95;2.70;;;5.50;99.90;;;;;;5089176;28;20791;-77
2020/12/07 03:17:00;;;;;;;4.60;2.88;;;5.30;99.90;;;;;;5090633;28;20205;-76
2020/12/07 03:19:27;;;;;;;4.10;2.50;;;5.40;99.90;;;;;;5089617;28;20610;-77
2020/12/07 03:21:53;;;;;;;5.75;3.05;;;5.30;99.90;;;;;;5089377;28;20278;-77
2020/12/07 03:24:19;;;;;;;4.70;2.58;;;5.10;99.90;;;;;;5089789;28;20209;-77
2020/12/07 03:26:46;;;;;;;5.07;3.30;;;5.10;99.90;;;;;;5089516;28;20201;-76
2020/12/07 03:29:14;;;;;;;4.85;3.05;;;5.20;99.90;;;;;;5089347;28;20349;-76
2020/12/07 03:31:41;;;;;;;5.00;2.78;;;5.20;99.90;;;;;;5102444;28;20277;-77
2020/12/07 03:34:08;;;;;;;4.35;2.65;;;5.20;99.90;;;;;;5089945;28;20201;-77
2020/12/07 03:36:35;;;;;;;3.92;2.60;;;5.50;99.90;;;;;;5088936;28;20217;-77
2020/12/07 03:39:02;;;;;;;5.25;2.95;;;5.40;99.90;;;;;;5089021;28;20353;-76
2020/12/07 03:41:28;;;;;;;4.45;2.95;;;5.30;99.90;;;;;;5105731;28;20212;-77
2020/12/07 03:43:55;;;;;;;5.28;3.03;;;5.50;99.90;;;;;;5109863;28;20212;-77
2020/12/07 03:46:22;;;;;;;4.50;2.78;;;5.40;99.90;;;;;;5091223;28;20229;-77
2020/12/07 03:48:49;;;;;;;4.15;2.75;;;5.30;99.90;;;;;;5089346;28;20223;-77
2020/12/07 03:51:15;;;;;;;3.97;2.80;;;5.20;99.90;;;;;;5089953;28;20201;-77
2020/12/07 03:53:43;;;;;;;5.07;2.70;;;5.20;99.90;;;;;;5094087;28;20594;-78
2020/12/07 03:56:10;;;;;;;5.22;3.58;;;5.20;99.90;;;;;;5111201;28;20679;-77
2020/12/07 03:58:36;;;;;;;4.03;2.50;;;5.40;99.90;;;;;;5095041;28;20228;-78
2020/12/07 04:01:04;;;;;;;4.70;2.97;;;5.20;99.90;;;;;;5090271;28;20277;-77
2020/12/07 04:03:32;;;;;;;5.18;3.25;;;5.60;99.90;;;;;;5090010;28;20256;-78
2020/12/07 04:06:03;;;;;;;4.63;3.03;;;5.30;99.90;;;;;;5088912;28;20293;-78
2020/12/07 04:08:30;;;;;;;4.95;2.70;;;5.50;99.90;;;;;;5095743;28;20232;-77
2020/12/07 04:10:57;;;;;;;6.88;2.80;;;5.60;99.90;;;;;;5103483;28;20278;-77
2020/12/07 04:13:24;;;;;;;5.47;3.65;;;5.40;99.90;;;;;;5091769;28;20220;-77
2020/12/07 04:15:50;;;;;;;4.45;2.80;;;5.30;99.90;;;;;;5089273;28;20282;-77
2020/12/07 04:18:17;;;;;;;6.97;3.00;;;5.20;99.90;;;;;;5088088;28;20259;-77
2020/12/07 04:20:44;;;;;;;5.38;2.85;;;5.40;99.90;;;;;;5090763;28;20262;-77
2020/12/07 04:23:11;;;;;;;4.45;2.75;;;5.20;99.90;;;;;;5101893;28;20198;-75
2020/12/07 04:25:38;;;;;;;4.55;2.85;;;5.40;99.90;;;;;;5088984;28;20232;-75
2020/12/07 04:28:04;;;;;;;6.03;3.08;;;5.30;99.90;;;;;;5091419;28;20241;-76
2020/12/07 04:30:31;;;;;;;4.82;2.75;;;5.20;99.90;;;;;;5093358;28;20217;-76
2020/12/07 04:32:57;;;;;;;4.75;2.65;;;5.40;99.90;;;;;;5092816;28;20221;-76
2020/12/07 04:35:24;;;;;;;4.55;2.92;;;5.30;99.90;;;;;;5102366;28;20231;-76
2020/12/07 04:37:51;;;;;;;4.13;2.53;;;5.40;99.90;;;;;;5097924;28;20204;-76
2020/12/07 04:40:18;;;;;;;5.32;3.15;;;5.40;99.90;;;;;;5092835;28;20208;-76
2020/12/07 04:42:45;;;;;;;4.72;2.80;;;5.40;99.90;;;;;;5092955;28;20270;-76
2020/12/07 04:45:11;;;;;;;5.10;3.28;;;5.30;99.90;;;;;;5092557;28;20741;-76
2020/12/07 04:47:39;;;;;;;5.10;2.53;;;5.10;99.90;;;;;;5092624;28;20206;-76
2020/12/07 04:50:07;;;;;;;4.68;3.00;;;5.40;99.90;;;;;;5110816;28;20585;-76
2020/12/07 04:52:34;;;;;;;4.45;2.95;;;5.10;99.90;;;;;;5092757;28;20225;-76
2020/12/07 04:55:05;;;;;;;4.25;2.60;;;5.30;99.90;;;;;;5092803;28;20245;-76
2020/12/07 04:57:32;;;;;;;5.38;3.00;;;5.40;99.90;;;;;;5111516;28;20212;-76
2020/12/07 04:59:59;;;;;;;4.28;2.90;;;5.30;99.90;;;;;;5112675;28;20200;-76
2020/12/07 05:02:26;;;;;;;4.93;2.88;;;5.30;99.90;;;;;;5094861;28;20193;-76
2020/12/07 05:04:54;;;;;;;4.80;3.10;;;5.30;99.90;;;;;;5092171;28;20298;-76
2020/12/07 05:07:20;;;;;;;6.00;3.90;;;5.40;99.90;;;;;;5092037;28;20307;-76
2020/12/07 05:09:47;;;;;;;5.85;3.55;;;5.30;99.90;;;;;;5096005;28;20193;-76
2020/12/07 05:12:18;;;;;;;6.47;3.90;;;5.30;99.90;;;;;;5096963;28;20270;-76
2020/12/07 05:14:45;;;;;;;5.45;3.08;;;5.40;99.90;;;;;;5092101;28;20231;-76
2020/12/07 05:17:14;;;;;;;5.00;3.00;;;5.40;99.90;;;;;;5108553;28;20200;-76
2020/12/07 05:19:41;;;;;;;6.07;3.53;;;5.50;99.90;;;;;;5092609;28;20251;-76
2020/12/07 05:22:15;;;;;;;5.10;3.15;;;5.50;99.90;;;;;;5092046;28;20200;-77
2020/12/07 05:24:41;;;;;;;4.95;3.30;;;5.80;99.90;;;;;;5092141;28;20389;-76
2020/12/07 05:27:10;;;;;;;5.93;3.08;;;5.70;99.90;;;;;;5092174;28;20197;-76
2020/12/07 05:29:50;;;;;;;5.70;3.70;;;5.60;99.90;;;;;;5092236;28;20201;-76
2020/12/07 05:32:17;;;;;;;4.18;2.90;;;5.60;99.90;;;;;;5091561;28;20213;-77
2020/12/07 05:34:45;;;;;;;5.20;3.10;;;5.50;99.90;;;;;;5094215;28;20228;-75
2020/12/07 05:37:12;;;;;;;6.50;3.80;;;5.50;99.90;;;;;;5096179;28;20208;-78
2020/12/07 05:39:38;;;;;;;7.82;3.92;;;5.40;99.90;;;;;;5091956;28;20213;-78
2020/12/07 05:42:05;;;;;;;5.85;3.35;;;5.30;99.90;;;;;;5091542;28;20266;-76
2020/12/07 05:44:34;;;;;;;5.20;3.13;;;5.40;99.90;;;;;;5092936;28;20275;-75
2020/12/07 05:47:02;;;;;;;6.53;3.88;;;5.50;99.90;;;;;;5090510;28;20205;-75
2020/12/07 05:49:30;;;;;;;6.60;4.03;;;5.30;99.90;;;;;;5091033;28;20216;-76
2020/12/07 05:52:04;;;;;;;6.40;3.85;;;5.20;99.90;;;;;;5091230;28;20228;-76
2020/12/07 05:54:31;;;;;;;5.85;3.45;;;5.30;99.90;;;;;;5091337;28;20225;-75
2020/12/07 05:57:08;;;;;;;7.07;4.10;;;5.50;99.90;;;;;;5095174;28;20197;-76
2020/12/07 05:59:41;;;;;;;6.10;3.60;;;5.20;99.90;;;;;;5094230;28;20655;-76
2020/12/07 06:02:12;;;;;;;8.10;3.95;;;5.30;99.90;;;;;;5091307;28;20266;-76
2020/12/07 06:04:38;;;;;;;7.45;4.28;;;5.30;99.90;;;;;;5091147;28;20229;-76
2020/12/07 06:07:08;;;;;;;7.60;4.22;;;5.20;99.90;;;;;;5090625;28;20567;-77
2020/12/07 06:09:37;;;;;;;5.93;3.63;;;5.40;99.90;;;;;;5093527;28;20278;-76
2020/12/07 06:12:09;;;;;;;8.05;4.45;;;5.40;99.90;;;;;;5090502;28;20244;-76
2020/12/07 06:14:38;;;;;;;7.60;4.07;;;5.20;99.90;;;;;;5111106;28;20293;-76
2020/12/07 06:17:05;;;;;;;7.45;4.45;;;5.30;99.90;;;;;;5105617;28;20243;-76
2020/12/07 06:19:33;;;;;;;8.63;5.28;;;5.20;99.90;;;;;;5090960;28;20213;-76
2020/12/07 06:22:02;;;;;;;6.43;4.65;;;5.20;99.90;;;;;;5091235;28;20737;-76
2020/12/07 06:24:39;;;;;;;11.65;4.93;;;5.20;99.90;;;;;;5091156;28;20223;-76
2020/12/07 06:27:07;;;;;;;6.53;3.60;;;5.40;99.90;;;;;;5092992;28;20564;-76
2020/12/07 06:29:34;;;;;;;11.05;6.15;;;5.60;99.90;;;;;;5091293;28;20217;-76
2020/12/07 06:32:00;;;;;;;9.35;4.45;;;5.40;99.90;;;;;;5096450;28;20240;-75
2020/12/07 06:34:38;;;;;;;7.80;4.60;;;5.20;99.90;;;;;;5106164;28;20196;-76
2020/12/07 06:37:08;;;;;;;8.23;5.15;;;5.30;99.90;;;;;;5085422;28;20240;-77
2020/12/07 06:39:43;;;;;;;8.85;4.65;;;5.10;99.90;;;;;;5070113;28;20228;-76
2020/12/07 06:42:10;;;;;;;7.75;4.50;;;5.30;99.90;;;;;;5083806;28;20228;-76
2020/12/07 06:44:43;;;;;;;9.27;4.82;;;5.40;99.90;;;;;;5090887;28;20695;-76
2020/12/07 06:47:15;;;;;;;7.13;4.38;;;5.20;99.90;;;;;;5089972;28;20205;-76
2020/12/07 06:49:51;;;;;;;11.13;5.30;;;5.20;99.90;;;;;;5089727;28;20205;-76
2020/12/07 06:52:21;;;;;;;7.15;5.15;;;5.30;99.90;;;;;;5093923;28;20269;-75
2020/12/07 06:55:05;;;;;;;9.88;5.93;;;5.40;99.90;;;;;;5090518;28;20332;-76
2020/12/07 06:57:32;;;;;;;8.20;5.60;;;5.20;99.90;;;;;;5090320;28;20284;-76
2020/12/07 07:00:02;;;;;;;8.77;5.40;;;5.10;99.90;;;;;;5089864;28;20209;-76
2020/12/07 07:02:30;;;;;;;8.77;5.18;;;5.20;99.90;;;;;;5090223;28;20263;-77
2020/12/07 07:04:58;;;;;;;7.57;4.88;;;5.00;99.90;;;;;;5090491;28;20225;-76
2020/12/07 07:07:27;;;;;;;7.78;5.55;;;5.20;99.90;;;;;;5090612;28;20269;-77
2020/12/07 07:09:54;;;;;;;9.63;5.70;;;5.10;99.90;;;;;;5094834;28;20218;-77
2020/12/07 07:12:22;;;;;;;7.82;5.25;;;5.10;99.90;;;;;;5110605;28;20220;-76
2020/12/07 07:14:53;;;;;;;8.55;6.00;;;5.10;99.90;;;;;;5096553;28;20575;-76
2020/12/07 07:17:20;;;;;;;9.65;5.70;;;5.30;99.90;;;;;;5089927;28;20231;-76
2020/12/07 07:19:47;;;;;;;10.90;6.57;;;5.20;99.90;;;;;;5088998;28;20206;-76
2020/12/07 07:22:15;;;;;;;12.75;5.65;;;5.50;99.90;;;;;;5089751;28;20227;-77
2020/12/07 07:24:50;;;;;;;10.80;6.03;;;5.50;99.90;;;;;;5089828;28;20232;-77
2020/12/07 07:30:02;;;;;;;9.93;6.38;;;5.40;99.90;;;;;;5089396;28;20250;-75
2020/12/07 07:32:29;;;;;;;10.23;6.70;;;5.60;99.90;;;;;;5089765;28;20213;-76
2020/12/07 07:34:55;;;;;;;8.77;5.28;;;5.60;99.90;;;;;;5089948;28;20236;-76
2020/12/07 07:37:23;;;;;;;8.43;5.40;;;5.50;99.90;;;;;;5088856;28;20259;-76
2020/12/07 07:39:58;;;;;;;10.05;6.50;;;5.70;99.90;;;;;;5089262;28;20205;-77
2020/12/07 07:42:26;;;;;;;13.23;6.13;;;5.70;99.90;;;;;;5089608;28;20730;-77
2020/12/07 07:44:53;;;;;;;7.28;5.10;;;5.50;99.90;;;;;;5089563;28;20233;-77
2020/12/07 07:47:23;;;;;;;8.40;5.97;;;5.50;99.90;;;;;;5089129;28;20197;-77
2020/12/07 07:50:15;;;;;;;10.02;5.68;;;5.70;99.90;;;;;;5078114;28;20531;-76
2020/12/07 08:15:44;;;;;;;7.18;5.57;;;6.50;99.90;;;;;;5068467;28;20212;-75
2020/12/07 08:18:17;;;;;;;9.35;5.68;;;6.10;99.90;;;;;;5094316;28;20701;-76
2020/12/07 08:20:50;;;;;;;8.70;5.40;;;6.10;99.90;;;;;;5093357;28;20677;-76
2020/12/07 08:23:17;;;;;;;8.25;5.00;;;6.00;99.90;;;;;;5094819;28;20244;-76
2020/12/07 08:25:50;;;;;;;7.85;5.55;;;6.20;99.90;;;;;;5093402;28;20221;-76
2020/12/07 08:28:22;;;;;;;8.23;5.50;;;6.30;99.90;;;;;;5093091;28;20193;-76
2020/12/07 08:31:06;;;;;;;7.72;5.13;;;6.10;99.90;;;;;;5093416;28;20813;-77
2020/12/07 08:33:35;;;;;;;6.35;4.68;;;6.20;99.90;;;;;;5093424;28;20286;-77
2020/12/07 08:36:04;;;;;;;9.10;5.80;;;6.10;99.90;;;;;;5092812;28;20233;-76
2020/12/07 08:38:34;;;;;;;7.53;4.60;;;6.40;99.90;;;;;;5093478;28;20634;-76
2020/12/07 08:41:10;;;;;;;9.38;4.35;;;6.20;99.90;;;;;;5094334;28;20201;-76
2020/12/07 08:43:37;;;;;;;8.00;5.20;;;6.10;99.90;;;;;;5093852;28;20199;-76
2020/12/07 08:46:06;;;;;;;7.32;4.60;;;6.30;99.90;;;;;;5093291;28;20221;-75
2020/12/07 08:48:33;;;;;;;7.38;4.88;;;6.50;99.90;;;;;;5092704;28;20247;-77
2020/12/07 08:51:00;;;;;;;6.18;4.13;;;6.30;99.90;;;;;;5093080;28;20724;-76
2020/12/07 08:53:26;;;;;;;6.50;4.72;;;6.50;99.90;;;;;;5093145;28;20224;-76
2020/12/07 08:55:52;;;;;;;8.27;4.90;;;6.20;99.90;;;;;;5094063;28;20278;-76
2020/12/07 08:58:20;;;;;;;7.82;4.15;;;6.30;99.90;;;;;;5093769;28;20556;-76
2020/12/07 09:00:46;;;;;;;6.40;4.03;;;6.50;99.90;;;;;;5093257;28;20701;-77
2020/12/07 09:03:14;;;;;;;8.15;4.55;;;6.20;99.90;;;;;;5093193;28;20224;-76
2020/12/07 09:05:40;;;;;;;6.50;4.15;;;6.30;99.90;;;;;;5092748;28;20597;-77
2020/12/07 09:08:07;;;;;;;5.55;3.55;;;6.50;99.90;;;;;;5093072;28;20205;-76
2020/12/07 09:10:34;;;;;;;7.55;3.90;;;6.40;99.90;;;;;;5103258;28;20622;-76
2020/12/07 09:13:01;;;;;;;6.78;4.07;;;6.20;99.90;;;;;;5111622;28;20224;-77
2020/12/07 09:15:28;;;;;;;7.50;5.15;;;6.40;99.90;;;;;;5096267;28;20221;-76
2020/12/07 09:17:55;;;;;;;7.57;4.13;;;6.40;99.90;;;;;;5091658;28;20212;-77
2020/12/07 09:20:22;;;;;;;7.65;4.13;;;6.40;99.90;;;;;;5092421;28;20205;-77
2020/12/07 09:22:48;;;;;;;6.00;4.05;;;6.40;99.90;;;;;;5080721;28;20204;-76
2020/12/07 09:25:15;;;;;;;7.10;4.35;;;6.70;99.90;;;;;;5072730;28;20229;-76
2020/12/07 09:27:41;;;;;;;7.55;4.18;;;6.80;99.90;;;;;;5090979;28;20209;-76
2020/12/07 09:30:08;;;;;;;6.00;4.13;;;7.00;99.90;;;;;;5106182;28;20228;-75
2020/12/07 09:32:36;;;;;;;7.97;4.35;;;6.90;99.90;;;;;;5113305;28;20298;-75
2020/12/07 09:35:04;;;;;;;6.15;3.97;;;6.90;99.90;;;;;;5112361;28;20748;-75
2020/12/07 09:37:31;;;;;;;5.70;3.78;;;6.90;99.90;;;;;;5112643;28;20208;-75
2020/12/07 09:39:58;;;;;;;8.00;4.35;;;6.90;99.90;;;;;;5112564;28;20189;-76
2020/12/07 09:42:25;;;;;;;8.02;4.13;;;6.80;99.90;;;;;;5112619;28;20205;-76
2020/12/07 09:44:51;;;;;;;6.72;4.30;;;6.70;99.90;;;;;;5111417;28;20216;-76
2020/12/07 09:47:18;;;;;;;7.55;3.95;;;6.90;99.90;;;;;;5092894;28;20209;-76
2020/12/07 09:49:45;;;;;;;6.10;4.40;;;7.10;99.90;;;;;;5092122;28;20639;-76
2020/12/07 09:52:12;;;;;;;6.13;4.10;;;6.80;99.90;;;;;;5091960;28;20728;-76
2020/12/07 09:54:39;;;;;;;5.93;3.80;;;6.80;99.90;;;;;;5092763;28;20726;-77
2020/12/07 09:57:07;;;;;;;6.57;4.60;;;7.00;99.90;;;;;;5093000;28;20209;-76
2020/12/07 09:59:35;;;;;;;6.47;3.50;;;7.20;99.90;;;;;;5092278;28;20236;-76
2020/12/07 10:02:02;;;;;;;6.38;4.05;;;6.90;99.90;;;;;;5093833;28;20197;-75
2020/12/07 10:04:29;;;;;;;6.97;4.28;;;7.00;99.90;;;;;;5092185;28;20197;-76
2020/12/07 10:06:56;;;;;;;5.22;3.28;;;7.00;99.90;;;;;;5081894;28;20546;-77
2020/12/07 10:09:23;;;;;;;5.47;3.60;;;7.30;99.90;;;;;;5076269;28;20250;-76
2020/12/07 10:11:50;;;;;;;6.97;4.07;;;7.20;99.90;;;;;;5106033;28;20193;-76
2020/12/07 10:14:17;;;;;;;8.65;4.15;;;7.30;99.90;;;;;;5100959;28;20212;-76
2020/12/07 10:16:44;;;;;;;5.95;3.75;;;7.20;99.90;;;;;;5100436;28;20234;-76
2020/12/07 10:19:11;;;;;;;5.38;3.83;;;7.20;99.90;;;;;;5095796;28;20208;-76
2020/12/07 10:21:37;;;;;;;5.10;3.35;;;7.30;99.90;;;;;;5093658;28;20201;-77
2020/12/07 10:24:05;;;;;;;7.40;4.03;;;7.40;99.90;;;;;;5093071;28;20208;-76
2020/12/07 10:26:32;;;;;;;5.55;3.67;;;7.30;99.90;;;;;;5086122;28;20256;-77
2020/12/07 10:29:02;;;;;;;6.82;4.00;;;7.20;99.90;;;;;;5071396;28;20214;-77
2020/12/07 10:31:29;;;;;;;6.32;3.35;;;7.20;99.90;;;;;;5072356;28;20209;-77
2020/12/07 10:33:56;;;;;;;6.10;3.55;;;7.30;99.90;;;;;;5079153;28;20229;-77
2020/12/07 10:36:24;;;;;;;6.50;3.78;;;7.30;99.90;;;;;;5092045;28;20233;-78
2020/12/07 10:38:51;;;;;;;5.65;3.15;;;7.30;99.90;;;;;;5091272;28;20209;-77
2020/12/07 10:41:25;;;;;;;7.70;3.78;;;7.30;99.90;;;;;;5091210;28;20584;-77
2020/12/07 10:43:52;;;;;;;6.55;3.95;;;7.50;99.90;;;;;;5091530;28;20223;-77
2020/12/07 10:46:18;;;;;;;5.45;3.33;;;7.30;99.90;;;;;;5091617;28;20260;-77
2020/12/07 10:48:45;;;;;;;6.07;4.05;;;7.70;99.90;;;;;;5090353;28;20209;-77
2020/12/07 10:51:12;;;;;;;7.07;4.00;;;7.50;99.90;;;;;;5091690;28;20201;-77
2020/12/07 10:53:39;;;;;;;7.03;4.00;;;7.30;99.90;;;;;;5090879;28;20248;-77
2020/12/07 10:56:07;;;;;;;7.47;4.32;;;7.50;99.90;;;;;;5090514;28;20253;-74
2020/12/07 10:58:35;;;;;;;8.02;3.55;;;7.30;99.90;;;;;;5090407;28;20284;-75
2020/12/07 11:01:02;;;;;;;5.97;3.90;;;7.30;99.90;;;;;;5090513;28;20209;-75
2020/12/07 11:03:28;;;;;;;5.63;3.67;;;7.40;99.90;;;;;;5090776;28;20652;-74
2020/12/07 11:05:55;;;;;;;6.22;4.00;;;7.60;99.90;;;;;;5091331;28;20216;-75
2020/12/07 11:08:30;;;;;;;5.20;3.38;;;7.40;99.90;;;;;;5102274;28;20193;-75
2020/12/07 11:10:56;;;;;;;5.10;3.60;;;7.50;99.90;;;;;;5096553;28;20196;-75
2020/12/07 11:13:30;;;;;;;6.63;4.20;;;7.60;99.90;;;;;;5105063;28;20285;-76
2020/12/07 11:16:00;;;;;;;5.82;3.90;;;7.50;99.90;;;;;;5110021;28;20308;-76
2020/12/07 11:18:27;;;;;;;5.30;3.72;;;7.50;99.90;;;;;;5109387;28;20333;-77
2020/12/07 11:20:54;;;;;;;7.68;3.75;;;7.30;99.90;;;;;;5109999;28;20649;-76
2020/12/07 11:23:20;;;;;;;6.10;3.75;;;7.50;99.90;;;;;;5099666;28;20194;-76
2020/12/07 11:25:47;;;;;;;7.13;4.60;;;7.60;99.90;;;;;;5105621;28;20223;-76
2020/12/07 11:28:14;;;;;;;5.43;3.92;;;7.70;99.90;;;;;;5090633;28;20306;-76
2020/12/07 11:30:40;;;;;;;6.22;3.88;;;7.60;99.90;;;;;;5090825;28;20250;-76
2020/12/07 11:33:08;;;;;;;7.03;4.00;;;7.90;99.90;;;;;;5090663;28;20213;-75
2020/12/07 11:35:34;;;;;;;5.55;3.83;;;7.80;99.90;;;;;;5089864;28;20233;-75
2020/12/07 11:38:06;;;;;;;7.95;4.00;;;7.90;99.90;;;;;;5098882;28;20196;-75
2020/12/07 11:40:49;;;;;;;6.88;3.67;;;7.70;99.90;;;;;;5089815;28;20212;-76
2020/12/07 11:43:18;;;;;;;5.43;3.78;;;8.00;99.90;;;;;;5090145;28;20276;-76
2020/12/07 11:45:45;;;;;;;5.47;3.05;;;7.70;99.90;;;;;;5089759;28;20260;-76
2020/12/07 11:48:14;;;;;;;4.80;3.50;;;7.70;99.90;;;;;;5090000;28;20258;-76
2020/12/07 11:50:41;;;;;;;5.15;3.42;;;7.70;99.90;;;;;;5088748;28;20628;-75
2020/12/07 11:53:07;;;;;;;5.47;3.47;;;7.40;99.90;;;;;;5088990;28;20221;-76
2020/12/07 11:55:35;;;;;;;5.78;3.70;;;7.30;99.90;;;;;;5100110;28;20775;-75
2020/12/07 11:58:02;;;;;;;5.93;3.22;;;7.30;99.90;;;;;;5097333;28;20216;-76
2020/12/07 12:00:28;;;;;;;5.93;4.25;;;7.40;99.90;;;;;;5103574;28;20201;-75
2020/12/07 12:02:55;;;;;;;5.78;3.33;;;7.50;99.90;;;;;;5110508;28;20572;-76
2020/12/07 12:05:22;;;;;;;4.55;2.85;;;7.40;99.90;;;;;;5110289;28;20224;-76
2020/12/07 12:07:49;;;;;;;4.55;2.75;;;7.70;99.90;;;;;;5093255;28;20208;-75
2020/12/07 12:10:16;;;;;;;4.05;2.60;;;7.50;99.90;;;;;;5097403;28;20200;-75
2020/12/07 12:12:42;;;;;;;6.35;3.58;;;7.40;99.90;;;;;;5091527;28;20619;-76
2020/12/07 12:15:09;;;;;;;5.90;3.08;;;7.70;99.90;;;;;;5090366;28;20256;-76
2020/12/07 12:17:36;;;;;;;5.10;2.53;;;7.50;99.90;;;;;;5090063;28;20213;-76
2020/12/07 12:20:03;;;;;;;4.43;2.40;;;7.40;99.90;;;;;;5089832;28;20215;-76
2020/12/07 12:22:31;;;;;;;6.35;3.15;;;7.40;99.90;;;;;;5090754;28;20629;-75
2020/12/07 12:24:58;;;;;;;5.68;3.00;;;7.10;99.90;;;;;;5090716;28;20293;-76
2020/12/07 12:27:24;;;;;;;5.95;3.70;;;7.20;99.90;;;;;;5093099;28;20526;-76
2020/12/07 12:29:51;;;;;;;5.43;3.20;;;7.10;99.90;;;;;;5090801;28;20281;-76
2020/12/07 12:32:17;;;;;;;5.80;3.22;;;7.10;99.90;;;;;;5091552;28;20216;-76
2020/12/07 12:34:44;;;;;;;4.57;2.72;;;7.10;99.90;;;;;;5098389;28;20232;-77
2020/12/07 12:37:10;;;;;;;6.00;3.50;;;7.00;99.90;;;;;;5090979;28;20569;-76
2020/12/07 12:39:38;;;;;;;5.10;2.95;;;6.90;99.90;;;;;;5089706;28;20216;-77
2020/12/07 12:42:04;;;;;;;4.43;3.10;;;7.00;99.90;;;;;;5089235;28;20205;-76
2020/12/07 12:44:31;;;;;;;5.85;3.58;;;7.10;99.90;;;;;;5090488;28;20206;-76
2020/12/07 12:46:58;;;;;;;5.50;3.58;;;7.10;99.90;;;;;;5088820;28;20564;-76
2020/12/07 12:49:24;;;;;;;8.32;3.78;;;7.10;99.90;;;;;;5103394;28;20204;-76
2020/12/07 12:51:51;;;;;;;8.23;4.05;;;7.10;99.90;;;;;;5113718;28;20215;-77
2020/12/07 12:54:18;;;;;;;5.28;3.20;;;7.00;99.90;;;;;;5095342;28;20232;-76
2020/12/07 12:56:45;;;;;;;7.07;4.18;;;7.30;99.90;;;;;;5092955;28;20312;-76
2020/12/07 12:59:12;;;;;;;7.28;4.10;;;7.10;99.90;;;;;;5099980;28;20284;-76
2020/12/07 13:01:39;;;;;;;6.30;3.40;;;6.90;99.90;;;;;;5103951;28;20211;-76
2020/12/07 13:04:05;;;;;;;6.28;3.60;;;6.90;99.90;;;;;;5105183;28;20196;-75
2020/12/07 13:06:35;;;;;;;5.47;3.40;;;7.00;99.90;;;;;;5098492;28;20627;-75
2020/12/07 13:09:03;;;;;;;6.30;3.72;;;7.00;99.90;;;;;;5103735;28;20196;-75
2020/12/07 13:11:31;;;;;;;4.30;3.10;;;7.00;99.90;;;;;;5100199;28;20198;-75
2020/12/07 13:13:58;;;;;;;8.77;3.78;;;6.90;99.90;;;;;;5098697;28;20300;-76
2020/12/07 13:16:28;;;;;;;6.60;3.72;;;6.90;99.90;;;;;;5096564;28;20224;-76
2020/12/07 13:18:57;;;;;;;8.38;3.60;;;6.90;99.90;;;;;;5102991;28;20193;-75
2020/12/07 13:21:27;;;;;;;6.13;3.90;;;7.10;99.90;;;;;;5096028;28;20232;-75
2020/12/07 13:23:58;;;;;;;7.18;3.75;;;6.80;99.90;;;;;;5097025;28;20273;-75
2020/12/07 13:26:31;;;;;;;5.63;3.90;;;7.20;99.90;;;;;;5101973;28;20295;-75